TimeCDT,TemperatureF,Dew PointF,Humidity,Sea Level PressureIn,VisibilityMPH,Wind Direction,Wind SpeedMPH,Gust SpeedMPH,PrecipitationIn,Events,Conditions,WindDirDegrees,DateUTC
12:15 AM,50.0,39.2,66,29.85,10.0,SW,3.5,-,N/A,,Overcast,230,2012-10-20 05:15:00
12:35 AM,48.2,39.2,71,29.85,10.0,WSW,4.6,-,N/A,,Overcast,240,2012-10-20 05:35:00
12:55 AM,48.2,39.2,71,29.86,10.0,WSW,4.6,-,N/A,,Overcast,250,2012-10-20 05:55:00
1:15 AM,48.2,39.2,71,29.86,10.0,West,3.5,-,N/A,,Overcast,260,2012-10-20 06:15:00
1:55 AM,48.2,41.0,76,29.86,10.0,West,3.5,-,N/A,,Overcast,280,2012-10-20 06:55:00
2:15 AM,46.4,41.0,81,29.86,10.0,Calm,Calm,-,N/A,,Overcast,0,2012-10-20 07:15:00
2:35 AM,46.4,41.0,81,29.85,10.0,Calm,Calm,-,N/A,,Overcast,0,2012-10-20 07:35:00
2:55 AM,46.4,39.2,76,29.85,10.0,Calm,Calm,-,N/A,,Overcast,0,2012-10-20 07:55:00
3:15 AM,44.6,39.2,81,29.84,10.0,Calm,Calm,-,N/A,,Overcast,0,2012-10-20 08:15:00
3:35 AM,44.6,39.2,81,29.85,10.0,Calm,Calm,-,N/A,,Overcast,0,2012-10-20 08:35:00
3:55 AM,42.8,39.2,87,29.85,10.0,Calm,Calm,-,N/A,,Overcast,0,2012-10-20 08:55:00
4:15 AM,42.8,39.2,87,29.86,10.0,Calm,Calm,-,N/A,,Overcast,0,2012-10-20 09:15:00
4:35 AM,44.6,39.2,81,29.86,10.0,SSW,3.5,-,N/A,,Mostly Cloudy,210,2012-10-20 09:35:00
4:55 AM,42.8,37.4,81,29.86,10.0,Calm,Calm,-,N/A,,Partly Cloudy,0,2012-10-20 09:55:00
5:15 AM,41.0,37.4,87,29.86,10.0,Calm,Calm,-,N/A,,Clear,0,2012-10-20 10:15:00
5:35 AM,41.0,37.4,87,29.88,10.0,Calm,Calm,-,N/A,,Scattered Clouds,0,2012-10-20 10:35:00
5:55 AM,41.0,37.4,87,29.88,10.0,Calm,Calm,-,N/A,,Mostly Cloudy,0,2012-10-20 10:55:00
6:15 AM,41.0,37.4,87,29.89,10.0,Calm,Calm,-,N/A,,Partly Cloudy,0,2012-10-20 11:15:00
6:35 AM,41.0,37.4,87,29.89,10.0,Calm,Calm,-,N/A,,Clear,0,2012-10-20 11:35:00
6:55 AM,39.2,35.6,87,29.89,10.0,Calm,Calm,-,N/A,,Clear,0,2012-10-20 11:55:00
7:15 AM,39.2,35.6,87,29.89,10.0,Calm,Calm,-,N/A,,Clear,0,2012-10-20 12:15:00
7:35 AM,39.2,35.6,87,29.89,7.0,Calm,Calm,-,N/A,,Clear,0,2012-10-20 12:35:00
7:55 AM,39.2,35.6,87,29.90,10.0,Calm,Calm,-,N/A,,Clear,0,2012-10-20 12:55:00
8:15 AM,42.8,37.4,81,29.91,10.0,Calm,Calm,-,N/A,,Clear,0,2012-10-20 13:15:00
8:35 AM,42.8,39.2,87,29.91,10.0,Calm,Calm,-,N/A,,Clear,0,2012-10-20 13:35:00
8:55 AM,44.6,39.2,81,29.91,10.0,South,3.5,-,N/A,,Clear,190,2012-10-20 13:55:00
9:15 AM,44.6,39.2,81,29.92,10.0,South,3.5,-,N/A,,Clear,190,2012-10-20 14:15:00
9:35 AM,48.2,41.0,76,29.93,10.0,SSW,3.5,-,N/A,,Clear,200,2012-10-20 14:35:00
9:55 AM,50.0,41.0,71,29.93,10.0,Calm,Calm,-,N/A,,Clear,0,2012-10-20 14:55:00
10:15 AM,51.8,39.2,62,29.93,10.0,Calm,Calm,-,N/A,,Clear,0,2012-10-20 15:15:00
10:35 AM,53.6,39.2,58,29.93,10.0,Calm,Calm,-,N/A,,Clear,0,2012-10-20 15:35:00
10:55 AM,55.4,41.0,58,29.92,10.0,South,3.5,-,N/A,,Clear,190,2012-10-20 15:55:00
11:15 AM,57.2,41.0,55,29.92,10.0,Calm,Calm,-,N/A,,Clear,0,2012-10-20 16:15:00
11:35 AM,59.0,41.0,51,29.92,10.0,SW,5.8,-,N/A,,Clear,220,2012-10-20 16:35:00
11:55 AM,60.8,42.8,52,29.91,10.0,WSW,5.8,-,N/A,,Clear,240,2012-10-20 16:55:00
12:15 PM,62.6,42.8,48,29.91,10.0,WSW,4.6,-,N/A,,Clear,250,2012-10-20 17:15:00
12:35 PM,62.6,41.0,45,29.91,10.0,SW,3.5,-,N/A,,Clear,230,2012-10-20 17:35:00
12:55 PM,64.4,39.2,40,29.89,10.0,WSW,5.8,-,N/A,,Clear,240,2012-10-20 17:55:00
1:15 PM,64.4,39.2,40,29.88,10.0,SW,3.5,-,N/A,,Clear,220,2012-10-20 18:15:00
1:35 PM,66.2,39.2,37,29.87,10.0,WNW,4.6,-,N/A,,Clear,290,2012-10-20 18:35:00
1:55 PM,66.2,37.4,35,29.86,10.0,Calm,Calm,-,N/A,,Clear,0,2012-10-20 18:55:00
2:15 PM,68.0,37.4,33,29.85,10.0,South,3.5,-,N/A,,Clear,190,2012-10-20 19:15:00
2:35 PM,69.8,37.4,31,29.84,10.0,East,5.8,-,N/A,,Clear,90,2012-10-20 19:35:00
2:55 PM,69.8,35.6,28,29.83,10.0,Calm,Calm,-,N/A,,Clear,0,2012-10-20 19:55:00
3:15 PM,69.8,37.4,31,29.83,10.0,ESE,3.5,-,N/A,,Clear,120,2012-10-20 20:15:00
3:35 PM,69.8,37.4,31,29.82,10.0,East,4.6,-,N/A,,Clear,100,2012-10-20 20:35:00
3:55 PM,69.8,37.4,31,29.82,10.0,SE,6.9,-,N/A,,Clear,140,2012-10-20 20:55:00
4:15 PM,71.6,37.4,29,29.82,10.0,ESE,6.9,-,N/A,,Clear,110,2012-10-20 21:15:00
4:35 PM,71.6,37.4,29,29.82,10.0,SE,8.1,-,N/A,,Clear,140,2012-10-20 21:35:00
4:55 PM,71.6,37.4,29,29.82,10.0,SE,5.8,-,N/A,,Clear,140,2012-10-20 21:55:00
5:15 PM,69.8,37.4,31,29.82,10.0,SE,4.6,-,N/A,,Clear,140,2012-10-20 22:15:00
5:35 PM,69.8,37.4,31,29.81,10.0,SSE,5.8,-,N/A,,Clear,150,2012-10-20 22:35:00
5:55 PM,69.8,37.4,31,29.81,10.0,ESE,4.6,-,N/A,,Clear,120,2012-10-20 22:55:00
6:15 PM,66.2,37.4,35,29.81,10.0,East,4.6,-,N/A,,Clear,100,2012-10-20 23:15:00
6:35 PM,64.4,37.4,37,29.81,10.0,East,4.6,-,N/A,,Clear,90,2012-10-20 23:35:00
6:55 PM,64.4,37.4,37,29.80,10.0,ESE,4.6,-,N/A,,Clear,110,2012-10-20 23:55:00
7:15 PM,62.6,37.4,39,29.81,10.0,ESE,4.6,-,N/A,,Clear,120,2012-10-21 00:15:00
7:35 PM,62.6,37.4,39,29.82,10.0,SE,4.6,-,N/A,,Clear,130,2012-10-21 00:35:00
7:55 PM,60.8,39.2,45,29.82,10.0,SSE,5.8,-,N/A,,Clear,160,2012-10-21 00:55:00
8:15 PM,60.8,39.2,45,29.82,10.0,SSE,5.8,-,N/A,,Clear,160,2012-10-21 01:15:00
8:35 PM,60.8,39.2,45,29.83,10.0,SSE,4.6,-,N/A,,Clear,160,2012-10-21 01:35:00
8:55 PM,60.8,39.2,45,29.83,10.0,SSE,4.6,-,N/A,,Clear,160,2012-10-21 01:55:00
9:15 PM,60.8,39.2,45,29.84,10.0,SSE,6.9,-,N/A,,Clear,150,2012-10-21 02:15:00
9:35 PM,60.8,39.2,45,29.84,10.0,SSE,4.6,-,N/A,,Clear,150,2012-10-21 02:35:00
9:55 PM,60.8,39.2,45,29.84,10.0,SSE,6.9,-,N/A,,Clear,160,2012-10-21 02:55:00
10:15 PM,59.0,39.2,48,29.84,10.0,South,5.8,-,N/A,,Clear,180,2012-10-21 03:15:00
10:35 PM,57.2,39.2,51,29.84,10.0,South,8.1,-,N/A,,Clear,180,2012-10-21 03:35:00
10:55 PM,57.2,41.0,55,29.85,10.0,South,6.9,-,N/A,,Clear,180,2012-10-21 03:55:00
11:15 PM,57.2,41.0,55,29.85,10.0,SSE,6.9,-,N/A,,Clear,160,2012-10-21 04:15:00
11:35 PM,57.2,41.0,55,29.85,10.0,SSE,6.9,-,N/A,,Clear,160,2012-10-21 04:35:00
11:55 PM,57.2,41.0,55,29.85,10.0,SSE,8.1,-,N/A,,Clear,160,2012-10-21 04:55:00